createdAt,value
2022-12-09T00:00:56.590Z,100033.44
2022-12-09T00:10:59.714Z,100025.47
2022-12-09T00:21:14.601Z,100021.34
2022-12-09T00:31:21.563Z,100016.13
2022-12-09T00:41:26.958Z,100017.88
2022-12-09T00:51:30.001Z,100050.81
2022-12-09T01:01:34.570Z,100055.13
2022-12-09T01:11:38.109Z,100040.37
2022-12-09T01:21:42.711Z,100027.41
2022-12-09T01:31:45.973Z,100027.41
2022-12-09T01:41:51.369Z,100032.59
2022-12-09T01:52:02.963Z,100034.28
2022-12-09T02:02:09.339Z,100019.72
2022-12-09T02:12:15.337Z,100011.84
2022-12-09T02:22:24.755Z,100023.97
2022-12-09T02:32:40.089Z,100022.16
2022-12-09T02:42:47.153Z,100016.06
2022-12-09T02:52:51.251Z,100005.75
2022-12-09T03:02:57.828Z,99992.78
2022-12-09T03:13:07.429Z,100003.94
2022-12-09T03:23:14.942Z,99991.72
2022-12-09T03:33:20.403Z,99985.69
2022-12-09T03:43:27.670Z,99992.59
2022-12-09T03:53:36.187Z,100003.88
2022-12-09T04:03:40.754Z,99989.16
2022-12-09T04:13:44.010Z,99978.81
2022-12-09T04:23:48.653Z,99997.00
2022-12-09T04:33:52.026Z,99980.44
2022-12-09T04:43:56.513Z,99984.03
2022-12-09T04:53:59.946Z,99975.50
2022-12-09T05:04:05.407Z,99980.66
2022-12-09T05:14:08.996Z,99970.25
2022-12-09T05:24:14.276Z,99968.53
2022-12-09T05:34:17.596Z,99969.44
2022-12-09T05:44:22.225Z,99963.37
2022-12-09T05:54:25.871Z,99963.41
2022-12-09T06:04:30.783Z,99962.16
2022-12-09T06:14:34.246Z,99951.31
2022-12-09T06:24:38.866Z,99949.66
2022-12-09T06:34:42.358Z,99948.84
2022-12-09T06:44:47.217Z,99939.25
2022-12-09T06:54:50.572Z,99934.84
2022-12-09T07:04:55.816Z,99936.69
2022-12-09T07:14:59.424Z,99941.84
2022-12-09T07:25:04.550Z,99935.78
2022-12-09T07:35:08.851Z,99920.19
2022-12-09T07:45:14.747Z,99914.28
2022-12-09T07:55:18.020Z,99911.75
2022-12-09T08:05:22.892Z,99916.87
2022-12-09T08:15:26.169Z,99920.47
2022-12-09T08:25:30.944Z,99904.66
2022-12-09T08:35:34.466Z,99904.50
2022-12-09T08:45:40.707Z,99889.97
2022-12-09T08:55:44.318Z,99887.50
2022-12-09T09:05:49.408Z,99882.03
2022-12-09T09:15:53.384Z,99859.00
2022-12-09T09:25:57.962Z,99868.25
2022-12-09T09:36:09.706Z,99846.06
2022-12-09T09:46:20.824Z,99835.66
2022-12-09T09:56:28.497Z,99814.06
2022-12-09T10:06:39.709Z,99811.47
2022-12-09T10:16:46.597Z,99794.13
2022-12-09T10:26:58.570Z,99775.94
2022-12-09T10:37:01.867Z,99756.91
2022-12-09T10:47:08.841Z,99736.13
2022-12-09T10:57:26.705Z,99705.84
2022-12-09T11:07:32.078Z,99679.88
2022-12-09T11:17:37.007Z,99656.53
2022-12-09T11:27:44.127Z,99625.34
2022-12-09T11:37:47.443Z,99605.47
2022-12-09T11:48:25.713Z,99612.37
2022-12-09T11:58:17.684Z,99584.66
2022-12-09T12:08:27.064Z,99586.41
2022-12-09T12:18:34.317Z,99571.66
2022-12-09T12:29:11.130Z,99581.22
2022-12-09T12:39:23.286Z,99561.38
2022-12-09T12:49:40.694Z,99552.72
2022-12-09T12:59:50.298Z,99521.63
2022-12-09T13:09:58.917Z,99523.22
2022-12-09T13:20:03.350Z,99512.91
2022-12-09T13:30:13.653Z,99515.53
2022-12-09T13:40:34.849Z,99488.75
2022-12-09T13:50:41.790Z,99493.84
2022-12-09T14:00:46.026Z,99486.94
2022-12-09T14:10:52.185Z,99480.03
2022-12-09T14:21:34.982Z,99473.91
2022-12-09T14:31:47.976Z,99463.56
2022-12-09T14:41:56.055Z,99454.19
2022-12-09T14:52:02.833Z,99434.31
2022-12-09T15:02:24.773Z,99412.72
2022-12-09T15:12:32.117Z,99406.59
2022-12-09T15:22:35.309Z,99375.25
2022-12-09T15:32:40.719Z,99364.69
2022-12-09T15:42:45.737Z,99357.69
2022-12-09T15:52:52.547Z,99349.81
2022-12-09T16:02:55.971Z,99335.12
2022-12-09T16:13:08.731Z,99306.47
2022-12-09T16:23:22.026Z,99302.28
2022-12-09T16:33:27.344Z,99294.28
2022-12-09T16:43:31.668Z,99283.97
2022-12-09T16:53:39.569Z,99268.25
2022-12-09T17:03:46.590Z,99227.59
2022-12-09T17:13:51.792Z,99221.50
2022-12-09T17:23:55.157Z,99212.97
2022-12-09T17:33:59.855Z,99192.16
2022-12-09T17:44:03.266Z,99178.31
2022-12-09T17:54:08.147Z,99179.16
2022-12-09T18:04:11.746Z,99166.31
2022-12-09T18:14:17.067Z,99151.81
2022-12-09T18:24:20.251Z,99142.22
2022-12-09T18:34:25.686Z,99128.25
2022-12-09T18:44:28.810Z,99115.09
2022-12-09T18:54:33.610Z,99082.75
2022-12-09T19:04:36.809Z,99065.19
2022-12-09T19:14:41.455Z,99082.34
2022-12-09T19:24:45.281Z,99077.00
2022-12-09T19:34:50.354Z,99082.81
2022-12-09T19:45:01.561Z,99063.78
2022-12-09T19:55:08.406Z,99046.38
2022-12-09T20:05:11.536Z,99051.66
2022-12-09T20:15:16.406Z,99016.91
2022-12-09T20:25:19.465Z,98998.00
2022-12-09T20:35:24.400Z,98974.63
2022-12-09T20:45:27.864Z,98965.47
2022-12-09T20:55:32.694Z,98955.91
2022-12-09T21:05:37.209Z,98935.91
2022-12-09T21:15:42.117Z,98915.84
2022-12-09T21:25:45.515Z,98924.63
2022-12-09T21:35:50.989Z,98917.41
2022-12-09T21:45:54.501Z,98901.00
2022-12-09T21:56:04.135Z,98914.69
2022-12-09T22:06:08.350Z,98936.47
2022-12-09T22:16:14.650Z,98922.47
2022-12-09T22:26:20.911Z,98934.44
2022-12-09T22:36:25.449Z,98920.19
2022-12-09T22:46:30.973Z,98917.91
2022-12-09T22:56:37.005Z,98908.84
2022-12-09T23:06:41.664Z,98911.69
2022-12-09T23:16:46.168Z,98914.47
2022-12-09T23:26:49.213Z,98911.16
2022-12-09T23:36:53.753Z,98900.69
2022-12-09T23:46:57.133Z,98904.81
2022-12-09T23:57:01.640Z,98910.03
